createdAt,value
2022-11-24T00:01:32.410Z,99272.56
2022-11-24T00:04:02.664Z,99276.03
2022-11-24T00:06:32.986Z,99276.91
2022-11-24T00:09:01.946Z,99270.91
2022-11-24T00:11:33.134Z,99274.38
2022-11-24T00:14:02.581Z,99270.94
2022-11-24T00:16:34.699Z,99281.28
2022-11-24T00:19:08.291Z,99281.31
2022-11-24T00:21:38.507Z,99283.06
2022-11-24T00:24:07.738Z,99273.59
2022-11-24T00:26:38.686Z,99283.06
2022-11-24T00:29:08.906Z,99281.38
2022-11-24T00:31:40.793Z,99286.53
2022-11-24T00:34:12.591Z,99281.38
2022-11-24T00:36:41.306Z,99284.81
2022-11-24T00:39:13.666Z,99282.28
2022-11-24T00:41:42.827Z,99284.84
2022-11-24T00:44:11.908Z,99288.31
2022-11-24T00:46:42.587Z,99291.78
2022-11-24T00:49:11.418Z,99285.78
2022-11-24T00:51:40.023Z,99282.31
2022-11-24T00:54:08.877Z,99288.38
2022-11-24T00:56:37.961Z,99289.25
2022-11-24T00:59:06.670Z,99285.00
2022-11-24T01:01:35.357Z,99287.63
2022-11-24T01:04:05.661Z,99279.88
2022-11-24T01:06:36.012Z,99290.19
2022-11-24T01:09:05.415Z,99288.50
2022-11-24T01:11:56.539Z,99288.47
2022-11-24T01:14:26.092Z,99279.09
2022-11-24T01:16:55.130Z,99287.69
2022-11-24T01:19:25.309Z,99284.25
2022-11-24T01:21:53.736Z,99292.84
2022-11-24T01:24:22.633Z,99287.69
2022-11-24T01:26:51.084Z,99282.44
2022-11-24T01:29:20.152Z,99284.19
2022-11-24T01:31:48.677Z,99285.06
2022-11-24T01:34:17.366Z,99285.94
2022-11-24T01:36:47.424Z,99279.97
2022-11-24T01:39:15.922Z,99279.06
2022-11-24T01:41:44.620Z,99281.66
2022-11-24T01:44:24.827Z,99287.69
2022-11-24T01:46:57.815Z,99281.69
2022-11-24T01:49:33.581Z,99282.56
2022-11-24T01:52:09.887Z,99284.28
2022-11-24T01:54:43.379Z,99295.47
2022-11-24T01:57:16.708Z,99286.91
2022-11-24T01:59:47.158Z,99285.19
2022-11-24T02:02:19.197Z,99290.41
2022-11-24T02:04:48.629Z,99294.66
2022-11-24T02:07:19.565Z,99292.00
2022-11-24T02:09:53.132Z,99292.06
2022-11-24T02:12:22.920Z,99291.22
2022-11-24T02:14:52.591Z,99291.22
2022-11-24T02:17:23.653Z,99286.06
2022-11-24T02:19:56.746Z,99286.03
2022-11-24T02:22:35.541Z,99286.03
2022-11-24T02:25:12.214Z,99282.63
2022-11-24T02:27:49.377Z,99290.41
2022-11-24T02:30:20.958Z,99287.84
2022-11-24T02:32:49.507Z,99283.56
2022-11-24T02:35:18.410Z,99283.59
2022-11-24T02:37:47.055Z,99287.06
2022-11-24T02:40:17.106Z,99275.91
2022-11-24T02:42:48.221Z,99286.19
2022-11-24T02:45:17.902Z,99276.78
2022-11-24T02:47:47.465Z,99280.22
2022-11-24T02:50:16.179Z,99275.88
2022-11-24T02:52:45.442Z,99280.22
2022-11-24T02:55:14.177Z,99280.22
2022-11-24T02:57:42.652Z,99280.22
2022-11-24T03:00:13.871Z,99275.09
2022-11-24T03:02:42.657Z,99278.56
2022-11-24T03:05:14.859Z,99276.81
2022-11-24T03:07:43.406Z,99277.66
2022-11-24T03:10:12.058Z,99283.63
2022-11-24T03:12:40.491Z,99280.16
2022-11-24T03:15:09.966Z,99287.94
2022-11-24T03:17:40.077Z,99294.78
2022-11-24T03:20:09.938Z,99293.03
2022-11-24T03:22:38.677Z,99296.50
2022-11-24T03:25:08.307Z,99294.81
2022-11-24T03:27:36.741Z,99286.28
2022-11-24T03:30:07.032Z,99291.44
2022-11-24T03:32:35.675Z,99294.94
2022-11-24T03:35:06.370Z,99298.41
2022-11-24T03:37:35.168Z,99294.94
2022-11-24T03:40:04.099Z,99292.34
2022-11-24T03:42:33.205Z,99297.44
2022-11-24T03:45:16.713Z,99288.91
2022-11-24T03:47:51.896Z,99287.22
2022-11-24T03:50:22.249Z,99300.09
2022-11-24T03:52:50.681Z,99303.59
2022-11-24T03:55:19.677Z,99299.31
2022-11-24T03:57:48.323Z,99291.56
2022-11-24T04:00:18.194Z,99301.81
2022-11-24T04:02:48.442Z,99294.06
2022-11-24T04:05:17.619Z,99295.81
2022-11-24T04:07:47.711Z,99304.38
2022-11-24T04:10:16.641Z,99302.66
2022-11-24T04:12:44.373Z,99312.94
2022-11-24T04:15:14.945Z,99306.94
2022-11-24T04:17:44.143Z,99301.81
2022-11-24T04:20:14.126Z,99308.72
2022-11-24T04:22:43.163Z,99309.63
2022-11-24T04:25:13.974Z,99316.47
2022-11-24T04:27:42.699Z,99312.22
2022-11-24T04:30:12.255Z,99311.38
2022-11-24T04:32:41.116Z,99314.78
2022-11-24T04:35:10.194Z,99324.22
2022-11-24T04:37:39.021Z,99315.66
2022-11-24T04:40:09.652Z,99319.03
2022-11-24T04:42:40.059Z,99315.59
2022-11-24T04:45:10.025Z,99315.59
2022-11-24T04:47:38.948Z,99320.72
2022-11-24T04:50:09.048Z,99314.75
2022-11-24T04:52:37.689Z,99317.31
2022-11-24T04:55:06.900Z,99314.69
2022-11-24T04:57:35.531Z,99319.81
2022-11-24T05:00:06.487Z,99319.84
2022-11-24T05:02:35.229Z,99316.44
2022-11-24T05:05:04.655Z,99323.28
2022-11-24T05:07:35.169Z,99317.34
2022-11-24T05:10:21.876Z,99317.38
2022-11-24T05:12:55.896Z,99325.97
2022-11-24T05:15:26.284Z,99328.56
2022-11-24T05:17:55.384Z,99332.03
2022-11-24T05:20:25.166Z,99337.16
2022-11-24T05:22:53.676Z,99333.72
2022-11-24T05:25:22.812Z,99330.34
2022-11-24T05:27:51.372Z,99332.03
2022-11-24T05:30:20.320Z,99331.16
2022-11-24T05:32:50.944Z,99338.03
2022-11-24T05:35:19.710Z,99335.50
2022-11-24T05:37:48.225Z,99343.22
2022-11-24T05:40:17.440Z,99344.91
2022-11-24T05:42:48.027Z,99340.63
2022-11-24T05:45:18.835Z,99350.06
2022-11-24T05:47:47.914Z,99346.59
2022-11-24T05:50:20.175Z,99348.31
2022-11-24T05:52:49.550Z,99345.72
2022-11-24T05:55:20.357Z,99346.63
2022-11-24T05:57:50.467Z,99350.94
2022-11-24T06:00:20.380Z,99356.09
2022-11-24T06:02:50.131Z,99361.25
2022-11-24T06:05:19.990Z,99354.34
2022-11-24T06:07:49.340Z,99362.03
2022-11-24T06:10:18.670Z,99357.75
2022-11-24T06:12:47.362Z,99354.34
2022-11-24T06:15:16.460Z,99360.38
2022-11-24T06:17:45.362Z,99356.91
2022-11-24T06:20:13.835Z,99360.38
2022-11-24T06:22:44.188Z,99356.09
2022-11-24T06:25:12.717Z,99361.25
2022-11-24T06:27:41.272Z,99359.50
2022-11-24T06:30:10.843Z,99369.81
2022-11-24T06:32:42.568Z,99371.56
2022-11-24T06:35:13.345Z,99369.81
2022-11-24T06:37:43.443Z,99369.81
2022-11-24T06:40:12.583Z,99373.25
2022-11-24T06:42:41.502Z,99374.94
2022-11-24T06:45:11.467Z,99382.66
2022-11-24T06:47:40.048Z,99383.53
2022-11-24T06:50:10.736Z,99381.75
2022-11-24T06:52:39.200Z,99385.22
2022-11-24T06:55:10.046Z,99388.63
2022-11-24T06:57:38.547Z,99388.59
2022-11-24T07:00:08.801Z,99387.78
2022-11-24T07:02:42.502Z,99384.31
2022-11-24T07:05:14.253Z,99390.34
2022-11-24T07:07:43.476Z,99392.06
2022-11-24T07:10:13.440Z,99388.59
2022-11-24T07:12:42.112Z,99391.97
2022-11-24T07:15:11.225Z,99401.38
2022-11-24T07:17:41.484Z,99389.34
2022-11-24T07:20:11.163Z,99391.06
2022-11-24T07:22:39.384Z,99390.97
2022-11-24T07:25:09.946Z,99394.38
2022-11-24T07:27:39.732Z,99394.28
2022-11-24T07:30:09.533Z,99400.22
2022-11-24T07:32:37.859Z,99401.78
2022-11-24T07:35:07.339Z,99401.66
2022-11-24T07:37:36.551Z,99403.31
2022-11-24T07:40:06.119Z,99404.19
2022-11-24T07:42:34.315Z,99403.28
2022-11-24T07:45:04.294Z,99417.88
2022-11-24T07:47:34.964Z,99417.00
2022-11-24T07:50:04.078Z,99411.03
2022-11-24T07:52:32.409Z,99415.34
2022-11-24T07:55:01.166Z,99420.44
2022-11-24T07:57:31.014Z,99414.44
2022-11-24T07:59:59.455Z,99411.00
2022-11-24T08:02:29.894Z,99419.53
2022-11-24T08:04:58.400Z,99422.06
2022-11-24T08:07:27.219Z,99422.91
2022-11-24T08:09:56.143Z,99422.91
2022-11-24T08:12:24.846Z,99423.81
2022-11-24T08:14:53.387Z,99420.34
2022-11-24T08:17:22.055Z,99414.28
2022-11-24T08:19:52.283Z,99420.34
2022-11-24T08:22:20.922Z,99428.97
2022-11-24T08:24:49.461Z,99428.94
2022-11-24T08:27:17.889Z,99431.41
2022-11-24T08:29:46.534Z,99430.50
2022-11-24T08:32:22.042Z,99437.34
2022-11-24T08:34:59.534Z,99439.91
2022-11-24T08:37:32.447Z,99432.09
2022-11-24T08:40:00.982Z,99437.22
2022-11-24T08:42:30.399Z,99437.19
2022-11-24T08:44:59.362Z,99441.47
2022-11-24T08:47:28.790Z,99447.41
2022-11-24T08:49:59.040Z,99453.31
2022-11-24T08:52:27.594Z,99454.19
2022-11-24T08:54:56.237Z,99450.56
2022-11-24T08:57:26.711Z,99451.38
2022-11-24T08:59:57.414Z,99435.88
2022-11-24T09:02:25.819Z,99438.38
2022-11-24T09:04:55.070Z,99440.03
2022-11-24T09:07:25.163Z,99443.50
2022-11-24T09:09:54.359Z,99440.03
2022-11-24T09:12:23.096Z,99436.53
2022-11-24T09:14:51.949Z,99438.28
2022-11-24T09:17:20.743Z,99446.00
2022-11-24T09:19:49.287Z,99440.78
2022-11-24T09:22:19.618Z,99444.19
2022-11-24T09:24:49.991Z,99442.59
2022-11-24T09:27:18.293Z,99450.31
2022-11-24T09:29:47.674Z,99447.66
2022-11-24T09:32:16.100Z,99453.59
2022-11-24T09:34:46.667Z,99451.81
2022-11-24T09:37:15.207Z,99458.72
2022-11-24T09:39:44.132Z,99457.88
2022-11-24T09:42:18.140Z,99458.69
2022-11-24T09:45:00.006Z,99458.69
2022-11-24T09:47:39.837Z,99450.94
2022-11-24T09:50:15.971Z,99473.25
2022-11-24T09:52:51.521Z,99468.97
2022-11-24T09:55:31.768Z,99468.97
2022-11-24T09:58:11.147Z,99472.38
2022-11-24T10:00:43.304Z,99474.09
2022-11-24T10:03:20.037Z,99479.28
2022-11-24T10:05:51.844Z,99472.34
2022-11-24T10:08:49.317Z,99477.63
2022-11-24T10:11:27.192Z,99478.56
2022-11-24T10:14:24.678Z,99470.69
2022-11-24T10:16:58.868Z,99480.97
2022-11-24T10:19:41.574Z,99477.59
2022-11-24T10:22:26.226Z,99475.78
2022-11-24T10:25:13.995Z,99471.41
2022-11-24T10:27:49.555Z,99479.13
2022-11-24T10:30:24.056Z,99475.66
2022-11-24T10:32:58.476Z,99477.34
2022-11-24T10:35:36.718Z,99484.28
2022-11-24T10:38:15.387Z,99478.25
2022-11-24T10:40:56.948Z,99486.81
2022-11-24T10:43:28.038Z,99491.16
2022-11-24T10:46:07.855Z,99485.19
2022-11-24T10:48:42.139Z,99497.25
2022-11-24T10:51:33.940Z,99494.63
2022-11-24T10:54:12.255Z,99498.94
2022-11-24T10:56:41.772Z,99499.88
2022-11-24T10:59:33.371Z,99497.38
2022-11-24T11:02:04.647Z,99493.09
2022-11-24T11:04:35.138Z,99503.34
2022-11-24T11:07:10.168Z,99494.66
2022-11-24T11:09:40.525Z,99506.72
2022-11-24T11:12:36.304Z,99499.06
2022-11-24T11:15:24.788Z,99492.19
2022-11-24T11:17:58.719Z,99500.75
2022-11-24T11:20:31.521Z,99505.88
2022-11-24T11:23:15.706Z,99505.91
2022-11-24T11:25:44.892Z,99505.94
2022-11-24T11:28:29.244Z,99510.19
2022-11-24T11:31:18.433Z,99501.53
2022-11-24T11:34:10.635Z,99503.19
2022-11-24T11:36:45.459Z,99507.53
2022-11-24T11:39:23.606Z,99510.13
2022-11-24T11:41:57.670Z,99505.81
2022-11-24T11:44:36.670Z,99501.50
2022-11-24T11:47:19.085Z,99517.78
2022-11-24T11:49:50.815Z,99515.28
2022-11-24T11:52:41.920Z,99509.38
2022-11-24T11:55:52.151Z,99511.94
2022-11-24T11:58:44.817Z,99514.38
2022-11-24T12:01:30.210Z,99516.09
2022-11-24T12:04:11.734Z,99511.84
2022-11-24T12:06:57.081Z,99524.88
2022-11-24T12:09:41.694Z,99518.97
2022-11-24T12:12:27.085Z,99513.91
2022-11-24T12:15:10.737Z,99518.22
2022-11-24T12:17:44.416Z,99518.25
2022-11-24T12:20:44.476Z,99520.00
2022-11-24T12:23:22.825Z,99525.16
2022-11-24T12:25:59.601Z,99530.31
2022-11-24T12:28:40.061Z,99519.13
2022-11-24T12:31:16.490Z,99529.53
2022-11-24T12:34:14.946Z,99519.22
2022-11-24T12:36:59.087Z,99527.84
2022-11-24T12:39:36.839Z,99521.81
2022-11-24T12:42:12.112Z,99524.38
2022-11-24T12:45:08.618Z,99525.25
2022-11-24T12:47:50.941Z,99525.25
2022-11-24T12:50:25.821Z,99529.53
2022-11-24T12:53:01.024Z,99531.22
2022-11-24T12:55:33.693Z,99532.03
2022-11-24T12:58:12.249Z,99531.25
2022-11-24T13:00:54.841Z,99537.31
2022-11-24T13:03:33.685Z,99538.22
2022-11-24T13:06:08.820Z,99533.06
2022-11-24T13:08:38.402Z,99527.97
2022-11-24T13:11:37.684Z,99531.50
2022-11-24T13:14:08.707Z,99536.75
2022-11-24T13:17:13.484Z,99529.03
2022-11-24T13:19:39.463Z,99530.72
2022-11-24T13:22:24.480Z,99535.06
2022-11-24T13:25:15.764Z,99534.25
2022-11-24T13:27:48.378Z,99535.13
2022-11-24T13:30:59.218Z,99538.63
2022-11-24T13:33:35.822Z,99532.66
2022-11-24T13:36:35.700Z,99538.75
2022-11-24T13:39:06.582Z,99547.47
2022-11-24T13:42:08.978Z,99541.41
2022-11-24T13:44:51.390Z,99550.84
2022-11-24T13:47:41.343Z,99546.56
2022-11-24T13:50:16.057Z,99545.72
2022-11-24T13:52:48.658Z,99543.22
2022-11-24T13:55:30.600Z,99544.97
2022-11-24T13:58:03.731Z,99536.41
2022-11-24T14:00:35.507Z,99535.59
2022-11-24T14:03:08.072Z,99542.44
2022-11-24T14:05:40.526Z,99542.47
2022-11-24T14:08:21.371Z,99549.38
2022-11-24T14:10:50.337Z,99543.34
2022-11-24T14:13:27.148Z,99553.66
2022-11-24T14:16:15.293Z,99558.84
2022-11-24T14:18:48.679Z,99559.72
2022-11-24T14:21:27.236Z,99559.72
2022-11-24T14:23:58.407Z,99563.16
2022-11-24T14:26:33.082Z,99578.63
2022-11-24T14:29:07.534Z,99572.59
2022-11-24T14:31:38.439Z,99571.81
2022-11-24T14:34:19.456Z,99573.50
2022-11-24T14:36:49.097Z,99575.19
2022-11-24T14:39:19.879Z,99584.69
2022-11-24T14:41:53.981Z,99576.97
2022-11-24T14:44:26.330Z,99582.13
2022-11-24T14:47:05.001Z,99579.56
2022-11-24T14:49:35.385Z,99577.03
2022-11-24T14:52:09.880Z,99580.47
2022-11-24T14:54:45.780Z,99583.94
2022-11-24T14:57:25.176Z,99592.56
2022-11-24T15:00:17.115Z,99599.47
2022-11-24T15:02:49.804Z,99602.06
2022-11-24T15:05:19.742Z,99604.63
2022-11-24T15:07:50.300Z,99609.78
2022-11-24T15:10:23.019Z,99612.34
2022-11-24T15:12:55.998Z,99608.06
2022-11-24T15:15:35.523Z,99613.19
2022-11-24T15:18:07.405Z,99608.94
2022-11-24T15:20:41.442Z,99617.53
2022-11-24T15:23:23.315Z,99620.13
2022-11-24T15:25:53.195Z,99620.97
2022-11-24T15:28:26.206Z,99631.28
2022-11-24T15:30:55.986Z,99623.56
2022-11-24T15:33:25.716Z,99624.38
2022-11-24T15:35:54.912Z,99632.19
2022-11-24T15:38:24.506Z,99629.63
2022-11-24T15:40:55.641Z,99639.06
2022-11-24T15:43:30.474Z,99641.63
2022-11-24T15:45:59.941Z,99645.09
2022-11-24T15:48:31.766Z,99645.09
2022-11-24T15:51:05.304Z,99641.69
2022-11-24T15:53:36.579Z,99652.84
2022-11-24T15:56:08.457Z,99654.56
2022-11-24T15:58:36.932Z,99649.44
2022-11-24T16:01:05.524Z,99658.00
2022-11-24T16:03:50.905Z,99661.44
2022-11-24T16:06:25.003Z,99658.88
2022-11-24T16:08:54.520Z,99662.34
2022-11-24T16:11:23.569Z,99666.66
2022-11-24T16:13:54.181Z,99665.84
2022-11-24T16:16:25.026Z,99665.84
2022-11-24T16:18:56.013Z,99667.56
2022-11-24T16:21:24.490Z,99676.13
2022-11-24T16:23:53.225Z,99670.13
2022-11-24T16:26:21.714Z,99670.94
2022-11-24T16:28:50.523Z,99674.34
2022-11-24T16:31:19.855Z,99676.09
2022-11-24T16:33:48.592Z,99683.84
2022-11-24T16:36:18.750Z,99672.69
2022-11-24T16:38:48.146Z,99676.97
2022-11-24T16:41:16.578Z,99681.31
2022-11-24T16:43:44.852Z,99683.84
2022-11-24T16:46:21.645Z,99692.44
2022-11-24T16:48:52.135Z,99678.69
2022-11-24T16:51:24.465Z,99682.16
2022-11-24T16:53:59.165Z,99686.44
2022-11-24T16:56:28.321Z,99688.19
2022-11-24T16:58:57.185Z,99690.78
2022-11-24T17:01:26.302Z,99694.22
2022-11-24T17:03:55.222Z,99695.94
2022-11-24T17:06:25.536Z,99703.66
2022-11-24T17:08:56.736Z,99716.53
2022-11-24T17:11:27.577Z,99713.13
2022-11-24T17:13:58.238Z,99716.53
2022-11-24T17:16:28.114Z,99716.53
2022-11-24T17:18:58.903Z,99718.22
2022-11-24T17:21:29.370Z,99720.78
2022-11-24T17:24:02.822Z,99718.22
2022-11-24T17:26:31.434Z,99719.94
2022-11-24T17:29:00.123Z,99720.81
2022-11-24T17:31:32.321Z,99726.81
2022-11-24T17:34:02.875Z,99724.25
2022-11-24T17:36:34.290Z,99725.94
2022-11-24T17:39:05.168Z,99730.25
2022-11-24T17:41:34.855Z,99743.16
2022-11-24T17:44:04.497Z,99744.03
2022-11-24T17:46:33.409Z,99744.03
2022-11-24T17:49:02.120Z,99746.63
2022-11-24T17:51:32.334Z,99742.31
2022-11-24T17:54:06.051Z,99747.47
2022-11-24T17:56:48.588Z,99750.91
2022-11-24T17:59:17.025Z,99755.19
2022-11-24T18:01:46.019Z,99750.91
2022-11-24T18:04:14.768Z,99757.75
2022-11-24T18:06:46.456Z,99763.75
2022-11-24T18:09:15.106Z,99768.91
2022-11-24T18:11:43.806Z,99769.78
2022-11-24T18:14:12.523Z,99768.06
2022-11-24T18:16:41.138Z,99773.22
2022-11-24T18:19:11.209Z,99764.69
2022-11-24T18:21:41.481Z,99773.25
2022-11-24T18:24:17.472Z,99774.97
2022-11-24T18:26:50.414Z,99771.53
2022-11-24T18:29:20.758Z,99774.97
2022-11-24T18:31:49.377Z,99781.84
2022-11-24T18:34:19.082Z,99770.69
2022-11-24T18:36:52.262Z,99778.44
2022-11-24T18:39:22.538Z,99775.84
2022-11-24T18:41:50.957Z,99774.97
2022-11-24T18:44:19.566Z,99774.97
2022-11-24T18:46:49.934Z,99775.81
2022-11-24T18:49:18.532Z,99781.84
2022-11-24T18:51:47.276Z,99775.84
2022-11-24T18:54:15.717Z,99773.28
2022-11-24T18:56:46.114Z,99771.56
2022-11-24T18:59:14.444Z,99771.53
2022-11-24T19:01:42.994Z,99767.25
2022-11-24T19:04:12.984Z,99778.44
2022-11-24T19:06:41.573Z,99775.84
2022-11-24T19:09:14.266Z,99775.84
2022-11-24T19:11:44.558Z,99781.84
2022-11-24T19:14:16.651Z,99782.69
2022-11-24T19:16:46.483Z,99783.53
2022-11-24T19:19:15.267Z,99780.13
2022-11-24T19:21:44.711Z,99789.56
2022-11-24T19:24:14.045Z,99793.00
2022-11-24T19:26:43.020Z,99788.69
2022-11-24T19:29:12.762Z,99790.38
2022-11-24T19:31:45.069Z,99793.84
2022-11-24T19:34:13.711Z,99795.53
2022-11-24T19:36:43.398Z,99798.97
2022-11-24T19:39:15.473Z,99798.13
2022-11-24T19:41:44.209Z,99796.41
2022-11-24T19:44:13.666Z,99798.13
2022-11-24T19:46:42.564Z,99795.53
2022-11-24T19:49:12.661Z,99812.72
2022-11-24T19:51:41.534Z,99810.13
2022-11-24T19:54:12.991Z,99813.56
2022-11-24T19:56:42.224Z,99819.56
2022-11-24T19:59:14.430Z,99811.81
2022-11-24T20:01:44.758Z,99823.00
2022-11-24T20:04:17.005Z,99823.84
2022-11-24T20:06:47.148Z,99826.41
2022-11-24T20:09:18.325Z,99826.47
2022-11-24T20:11:51.544Z,99827.34
2022-11-24T20:14:22.198Z,99839.34
2022-11-24T20:16:51.257Z,99833.31
2022-11-24T20:19:21.281Z,99836.78
2022-11-24T20:21:50.471Z,99847.09
2022-11-24T20:24:20.943Z,99857.41
2022-11-24T20:26:51.599Z,99865.13
2022-11-24T20:29:20.809Z,99872.00
2022-11-24T20:31:51.885Z,99865.13
2022-11-24T20:34:23.219Z,99868.56
2022-11-24T20:36:53.898Z,99865.13
2022-11-24T20:39:25.614Z,99871.16
2022-11-24T20:41:56.751Z,99869.41
2022-11-24T20:44:27.891Z,99874.56
2022-11-24T20:46:58.338Z,99878.84
2022-11-24T20:49:29.880Z,99881.41
2022-11-24T20:51:58.996Z,99886.56
2022-11-24T20:54:28.240Z,99898.59
2022-11-24T20:56:56.659Z,99893.44
2022-11-24T20:59:26.324Z,99895.13
2022-11-24T21:01:57.300Z,99897.75
2022-11-24T21:04:28.326Z,99897.75
2022-11-24T21:06:57.187Z,99896.00
2022-11-24T21:09:27.347Z,99902.03
2022-11-24T21:11:57.877Z,99893.47
2022-11-24T21:14:30.036Z,99903.75
2022-11-24T21:17:01.098Z,99902.06
2022-11-24T21:19:31.282Z,99902.06
2022-11-24T21:22:02.173Z,99900.34
2022-11-24T21:24:31.160Z,99906.34
2022-11-24T21:27:01.849Z,99898.63
2022-11-24T21:29:31.663Z,99899.47
2022-11-24T21:32:00.775Z,99902.03
2022-11-24T21:34:31.203Z,99900.34
2022-11-24T21:37:00.103Z,99900.31
2022-11-24T21:39:28.638Z,99903.75
2022-11-24T21:41:57.241Z,99912.34
2022-11-24T21:44:26.323Z,99906.31
2022-11-24T21:46:56.214Z,99899.44
2022-11-24T21:49:25.105Z,99904.59
2022-11-24T21:51:56.387Z,99907.19
2022-11-24T21:54:25.217Z,99902.03
2022-11-24T21:56:55.652Z,99901.16
2022-11-24T21:59:24.025Z,99906.31
2022-11-24T22:01:52.823Z,99908.03
2022-11-24T22:04:21.265Z,99900.28
2022-11-24T22:06:50.264Z,99900.28
2022-11-24T22:09:20.376Z,99901.16
2022-11-24T22:11:50.050Z,99898.59
2022-11-24T22:14:21.157Z,99894.31
2022-11-24T22:16:50.377Z,99900.34
2022-11-24T22:19:19.364Z,99908.94
2022-11-24T22:21:47.960Z,99902.03
2022-11-24T22:24:16.601Z,99902.91
2022-11-24T22:26:48.793Z,99905.50
2022-11-24T22:29:17.578Z,99899.47
2022-11-24T22:31:46.095Z,99902.03
2022-11-24T22:34:14.774Z,99905.44
2022-11-24T22:36:43.566Z,99902.88
2022-11-24T22:39:13.622Z,99895.16
2022-11-24T22:41:42.242Z,99910.59
2022-11-24T22:44:15.666Z,99912.34
2022-11-24T22:46:44.369Z,99905.47
2022-11-24T22:49:13.282Z,99908.06
2022-11-24T22:51:42.404Z,99919.19
2022-11-24T22:54:13.141Z,99908.91
2022-11-24T22:56:41.436Z,99908.06
2022-11-24T22:59:10.087Z,99911.47
2022-11-24T23:01:39.947Z,99912.34
2022-11-24T23:04:09.068Z,99912.34
2022-11-24T23:06:38.403Z,99920.13
2022-11-24T23:09:07.824Z,99920.13
2022-11-24T23:11:38.871Z,99920.97
2022-11-24T23:14:09.649Z,99922.69
2022-11-24T23:16:39.692Z,99932.13
2022-11-24T23:19:09.439Z,99936.41
2022-11-24T23:21:39.766Z,99942.41
2022-11-24T23:24:10.077Z,99948.44
2022-11-24T23:26:40.981Z,99938.94
2022-11-24T23:29:11.211Z,99942.41
2022-11-24T23:31:41.445Z,99944.97
2022-11-24T23:34:10.591Z,99943.28
2022-11-24T23:36:39.643Z,99942.41
2022-11-24T23:39:12.372Z,99942.41
2022-11-24T23:41:41.367Z,99949.25
2022-11-24T23:44:10.155Z,99954.44
2022-11-24T23:46:38.639Z,99952.75
2022-11-24T23:49:08.844Z,99947.59
2022-11-24T23:51:42.144Z,99941.56
2022-11-24T23:54:11.294Z,99945.03
2022-11-24T23:56:39.775Z,99950.16
2022-11-24T23:59:11.721Z,99949.31
